createdAt,value
2019-05-09T00:01:54.183Z,11.43
2019-05-09T00:04:25.338Z,11.27
2019-05-09T00:06:57.379Z,11.40
2019-05-09T00:09:29.439Z,11.45
2019-05-09T00:12:03.650Z,11.42
2019-05-09T00:14:35.238Z,11.42
2019-05-09T00:17:07.606Z,11.42
2019-05-09T00:19:39.756Z,11.48
2019-05-09T00:22:13.070Z,11.59
2019-05-09T00:24:45.019Z,11.65
2019-05-09T00:27:16.945Z,11.58
2019-05-09T00:29:50.057Z,11.50
2019-05-09T00:32:30.047Z,11.52
2019-05-09T00:35:09.542Z,11.48
2019-05-09T00:37:55.257Z,11.34
2019-05-09T00:40:26.886Z,11.48
2019-05-09T00:42:58.837Z,11.36
2019-05-09T00:45:40.983Z,11.39
2019-05-09T00:48:14.304Z,11.43
2019-05-09T00:50:46.486Z,11.33
2019-05-09T00:53:18.890Z,11.34
2019-05-09T00:55:52.935Z,11.33
2019-05-09T00:58:24.450Z,11.47
2019-05-09T01:00:56.009Z,11.43
2019-05-09T01:03:27.694Z,11.36
2019-05-09T01:05:59.809Z,11.41
2019-05-09T01:08:33.511Z,11.43
2019-05-09T01:11:12.492Z,11.54
2019-05-09T01:13:39.243Z,11.47
2019-05-09T01:16:12.799Z,11.43
2019-05-09T01:18:44.454Z,11.25
2019-05-09T01:21:16.081Z,11.21
2019-05-09T01:23:47.945Z,11.23
2019-05-09T01:26:19.185Z,11.14
2019-05-09T01:28:53.802Z,11.24
2019-05-09T01:31:26.417Z,11.27
2019-05-09T01:34:08.203Z,11.06
2019-05-09T01:36:58.802Z,11.07
2019-05-09T01:39:30.754Z,11.14
2019-05-09T01:42:03.271Z,11.14
2019-05-09T01:44:35.215Z,11.12
2019-05-09T01:47:10.065Z,11.14
2019-05-09T01:49:43.189Z,11.16
2019-05-09T01:52:15.368Z,11.04
2019-05-09T01:54:48.873Z,11.19
2019-05-09T01:57:20.547Z,11.20
2019-05-09T01:59:53.305Z,11.05
2019-05-09T02:02:24.857Z,11.04
2019-05-09T02:04:56.440Z,11.05
2019-05-09T02:07:28.863Z,11.05
2019-05-09T02:10:03.239Z,11.19
2019-05-09T02:12:35.685Z,10.93
2019-05-09T02:15:16.347Z,10.98
2019-05-09T02:18:01.568Z,11.02
2019-05-09T02:20:30.118Z,11.04
2019-05-09T02:23:03.710Z,11.05
2019-05-09T02:25:35.075Z,11.01
2019-05-09T02:28:07.325Z,11.01
2019-05-09T02:30:39.700Z,10.92
2019-05-09T02:33:14.428Z,10.98
2019-05-09T02:35:55.789Z,11.08
2019-05-09T02:38:19.971Z,10.98
2019-05-09T02:40:51.189Z,10.98
2019-05-09T02:43:22.576Z,10.96
2019-05-09T02:46:00.548Z,11.10
2019-05-09T02:48:32.556Z,11.05
2019-05-09T02:51:04.086Z,10.96
2019-05-09T02:53:39.519Z,11.05
2019-05-09T02:56:10.325Z,11.07
2019-05-09T02:58:58.957Z,11.09
2019-05-09T03:01:39.344Z,11.08
2019-05-09T03:04:12.097Z,11.07
2019-05-09T03:06:44.144Z,10.96
2019-05-09T03:09:19.036Z,11.21
2019-05-09T03:11:49.396Z,11.15
2019-05-09T03:14:21.375Z,11.21
2019-05-09T03:16:52.989Z,11.24
2019-05-09T03:19:25.010Z,11.12
2019-05-09T03:22:00.538Z,11.16
2019-05-09T03:24:31.770Z,11.10
2019-05-09T03:27:08.791Z,11.07
2019-05-09T03:29:48.918Z,11.14
2019-05-09T03:32:20.865Z,11.03
2019-05-09T03:34:52.701Z,10.87
2019-05-09T03:37:24.264Z,10.93
2019-05-09T03:39:57.969Z,10.94
2019-05-09T03:42:38.040Z,11.00
2019-05-09T03:45:03.343Z,11.03
2019-05-09T03:47:47.832Z,10.87
2019-05-09T03:50:19.530Z,10.96
2019-05-09T03:52:51.339Z,11.00
2019-05-09T03:55:32.774Z,11.00
2019-05-09T03:58:11.412Z,10.95
2019-05-09T04:00:43.104Z,11.08
2019-05-09T04:03:14.803Z,10.93
2019-05-09T04:05:56.538Z,11.06
2019-05-09T04:08:22.782Z,10.95
2019-05-09T04:10:53.845Z,10.97
2019-05-09T04:13:29.558Z,11.02
2019-05-09T04:16:01.367Z,11.04
2019-05-09T04:18:33.278Z,10.97
2019-05-09T04:21:05.002Z,10.96
2019-05-09T04:23:37.854Z,10.93
2019-05-09T04:26:17.643Z,11.01
2019-05-09T04:28:49.904Z,10.94
2019-05-09T04:31:21.560Z,10.89
2019-05-09T04:33:53.806Z,10.84
2019-05-09T04:39:23.615Z,11.04
2019-05-09T04:41:54.915Z,10.92
2019-05-09T04:44:38.436Z,10.98
2019-05-09T04:47:09.549Z,10.99
2019-05-09T04:49:45.224Z,11.04
2019-05-09T04:52:13.596Z,11.10
2019-05-09T04:54:44.782Z,11.27
2019-05-09T04:57:17.880Z,11.30
2019-05-09T04:59:48.488Z,11.11
2019-05-09T05:02:32.129Z,11.08
2019-05-09T05:05:03.153Z,11.26
2019-05-09T05:07:34.881Z,11.26
2019-05-09T05:10:09.007Z,11.31
2019-05-09T05:12:39.536Z,11.24
2019-05-09T05:15:10.730Z,11.33
2019-05-09T05:17:42.279Z,11.19
2019-05-09T05:20:18.572Z,11.10
2019-05-09T05:22:55.115Z,11.08
2019-05-09T05:25:27.904Z,11.18
2019-05-09T05:28:39.652Z,11.28
2019-05-09T05:31:11.708Z,11.20
2019-05-09T05:33:59.734Z,11.21
2019-05-09T05:36:31.494Z,11.30
2019-05-09T05:39:04.854Z,11.24
2019-05-09T05:41:37.796Z,11.44
2019-05-09T05:44:11.181Z,11.42
2019-05-09T05:46:53.167Z,11.61
2019-05-09T05:49:24.728Z,11.43
2019-05-09T05:51:57.648Z,11.77
2019-05-09T05:54:29.352Z,11.86
2019-05-09T05:57:01.232Z,11.80
2019-05-09T05:59:33.164Z,12.15
2019-05-09T06:02:04.781Z,12.16
2019-05-09T06:04:38.138Z,11.99
2019-05-09T06:07:10.864Z,11.98
2019-05-09T06:09:42.709Z,11.97
2019-05-09T06:12:14.630Z,11.76
2019-05-09T06:14:48.102Z,11.76
2019-05-09T06:17:19.691Z,11.79
2019-05-09T06:19:51.347Z,11.58
2019-05-09T06:22:23.210Z,11.58
2019-05-09T06:24:54.942Z,11.66
2019-05-09T06:27:27.677Z,11.84
2019-05-09T06:29:59.519Z,11.85
2019-05-09T06:32:30.725Z,11.89
2019-05-09T06:35:02.605Z,11.83
2019-05-09T06:37:34.666Z,11.98
2019-05-09T06:42:38.098Z,12.12
2019-05-09T06:45:24.372Z,12.15
2019-05-09T06:47:58.289Z,12.42
2019-05-09T06:50:29.418Z,12.59
2019-05-09T06:53:01.065Z,12.73
2019-05-09T06:55:32.902Z,12.47
2019-05-09T06:58:23.429Z,12.64
2019-05-09T07:01:01.381Z,12.57
2019-05-09T07:03:33.214Z,13.01
2019-05-09T07:06:09.161Z,13.22
2019-05-09T07:09:09.317Z,13.35
2019-05-09T07:11:42.475Z,13.20
2019-05-09T07:14:38.279Z,13.60
2019-05-09T07:17:08.504Z,13.74
2019-05-09T07:19:43.937Z,13.73
2019-05-09T07:22:39.234Z,13.32
2019-05-09T07:25:15.084Z,13.26
2019-05-09T07:27:48.322Z,12.92
2019-05-09T07:30:31.019Z,13.01
2019-05-09T07:33:13.725Z,13.00
2019-05-09T07:35:47.437Z,13.31
2019-05-09T07:38:28.687Z,13.31
2019-05-09T07:41:01.090Z,12.96
2019-05-09T07:43:33.383Z,13.27
2019-05-09T07:46:19.030Z,12.91
2019-05-09T07:48:50.383Z,12.93
2019-05-09T07:51:22.569Z,13.04
2019-05-09T07:53:54.211Z,13.43
2019-05-09T07:56:28.471Z,13.85
2019-05-09T07:58:59.383Z,14.06
2019-05-09T08:01:31.429Z,13.44
2019-05-09T08:04:03.284Z,13.47
2019-05-09T08:06:37.814Z,13.32
2019-05-09T08:09:08.644Z,13.54
2019-05-09T08:11:39.891Z,13.43
2019-05-09T08:14:12.052Z,13.18
2019-05-09T08:16:43.911Z,13.24
2019-05-09T08:19:17.941Z,12.95
2019-05-09T08:21:49.032Z,13.26
2019-05-09T08:24:20.935Z,13.41
2019-05-09T08:26:52.598Z,13.68
2019-05-09T08:29:24.334Z,13.31
2019-05-09T08:31:58.051Z,13.45
2019-05-09T08:34:28.790Z,13.59
2019-05-09T08:37:00.335Z,13.58
2019-05-09T08:39:31.886Z,13.46
2019-05-09T08:42:02.848Z,13.40
2019-05-09T08:44:34.573Z,13.39
2019-05-09T08:47:07.885Z,13.72
2019-05-09T08:49:49.646Z,13.43
2019-05-09T08:52:20.747Z,13.40
2019-05-09T08:54:55.018Z,13.16
2019-05-09T08:57:28.841Z,13.49
2019-05-09T09:00:00.481Z,14.39
2019-05-09T09:02:32.189Z,14.62
2019-05-09T09:05:03.753Z,15.39
2019-05-09T09:07:37.929Z,15.10
2019-05-09T09:10:09.160Z,14.86
2019-05-09T09:12:40.822Z,15.16
2019-05-09T09:15:12.250Z,15.12
2019-05-09T09:17:44.536Z,15.63
2019-05-09T09:20:18.010Z,15.64
2019-05-09T09:22:48.272Z,16.58
2019-05-09T09:25:19.793Z,17.43
2019-05-09T09:27:52.043Z,17.01
2019-05-09T09:30:25.170Z,16.49
2019-05-09T09:32:58.628Z,17.22
2019-05-09T09:35:29.281Z,16.42
2019-05-09T09:38:00.766Z,16.11
2019-05-09T09:40:32.931Z,16.69
2019-05-09T09:43:04.149Z,17.18
2019-05-09T09:45:37.766Z,17.22
2019-05-09T09:48:09.445Z,17.39
2019-05-09T09:50:41.136Z,16.32
2019-05-09T09:53:12.359Z,16.86
2019-05-09T09:55:44.165Z,16.19
2019-05-09T09:58:15.495Z,16.69
2019-05-09T10:01:10.740Z,16.32
2019-05-09T10:03:42.466Z,17.16
2019-05-09T10:06:14.010Z,17.18
2019-05-09T10:08:48.841Z,17.32
2019-05-09T10:11:20.886Z,15.65
2019-05-09T10:13:52.791Z,15.59
2019-05-09T10:16:47.774Z,16.06
2019-05-09T10:19:31.427Z,16.15
2019-05-09T10:22:04.097Z,17.17
2019-05-09T10:24:35.472Z,16.82
2019-05-09T10:27:09.790Z,17.23
2019-05-09T10:29:41.329Z,17.30
2019-05-09T10:32:14.057Z,17.15
2019-05-09T10:34:48.543Z,17.23
2019-05-09T10:37:19.312Z,16.83
2019-05-09T10:39:51.402Z,17.32
2019-05-09T10:42:48.455Z,17.29
2019-05-09T10:45:49.393Z,17.96
2019-05-09T10:48:23.939Z,17.55
2019-05-09T10:50:55.066Z,16.80
2019-05-09T10:53:28.401Z,17.14
2019-05-09T10:56:00.213Z,17.29
2019-05-09T10:58:31.634Z,17.33
2019-05-09T11:01:03.430Z,17.75
2019-05-09T11:03:34.673Z,18.51
2019-05-09T11:06:08.633Z,18.93
2019-05-09T11:08:40.335Z,18.84
2019-05-09T11:11:11.806Z,18.84
2019-05-09T11:13:42.857Z,17.53
2019-05-09T11:16:14.879Z,18.19
2019-05-09T11:18:48.283Z,19.01
2019-05-09T11:21:19.947Z,19.01
2019-05-09T11:23:51.508Z,19.30
2019-05-09T11:26:23.139Z,18.37
2019-05-09T11:28:58.493Z,19.03
2019-05-09T11:31:29.923Z,18.67
2019-05-09T11:34:01.994Z,19.31
2019-05-09T11:36:34.192Z,17.72
2019-05-09T11:39:10.282Z,17.16
2019-05-09T11:41:40.056Z,17.46
2019-05-09T11:44:12.002Z,18.29
2019-05-09T11:46:43.853Z,18.33
2019-05-09T11:49:18.041Z,18.70
2019-05-09T11:51:48.760Z,18.46
2019-05-09T11:54:20.705Z,18.03
2019-05-09T11:56:52.833Z,18.70
2019-05-09T11:59:25.068Z,18.09
2019-05-09T12:01:58.680Z,18.56
2019-05-09T12:04:31.400Z,19.15
2019-05-09T12:07:03.272Z,19.28
2019-05-09T12:09:34.779Z,18.88
2019-05-09T12:12:06.388Z,17.94
2019-05-09T12:14:38.306Z,17.24
2019-05-09T12:17:11.396Z,17.41
2019-05-09T12:19:42.964Z,17.64
2019-05-09T12:22:14.698Z,17.74
2019-05-09T12:24:48.135Z,18.00
2019-05-09T12:27:19.552Z,18.78
2019-05-09T12:29:51.106Z,19.66
2019-05-09T12:32:22.577Z,19.14
2019-05-09T12:34:54.445Z,19.30
2019-05-09T12:37:25.399Z,18.20
2019-05-09T12:39:58.568Z,18.52
2019-05-09T12:42:30.241Z,18.42
2019-05-09T12:45:01.866Z,18.12
2019-05-09T12:47:33.410Z,18.83
2019-05-09T12:50:05.262Z,18.50
2019-05-09T12:52:44.013Z,18.04
2019-05-09T12:55:17.843Z,17.84
2019-05-09T12:57:50.223Z,17.76
2019-05-09T13:00:23.589Z,17.95
2019-05-09T13:02:59.229Z,18.04
2019-05-09T13:05:30.153Z,18.69
2019-05-09T13:08:02.016Z,18.84
2019-05-09T13:10:33.950Z,18.51
2019-05-09T13:13:08.762Z,18.25
2019-05-09T13:15:45.854Z,17.86
2019-05-09T13:18:24.530Z,17.87
2019-05-09T13:20:50.862Z,18.77
2019-05-09T13:23:22.535Z,19.01
2019-05-09T13:25:54.324Z,19.47
2019-05-09T13:28:25.797Z,19.81
2019-05-09T13:30:58.468Z,20.01
2019-05-09T13:33:31.191Z,18.92
2019-05-09T13:36:02.929Z,19.60
2019-05-09T13:38:34.570Z,19.29
2019-05-09T13:41:08.536Z,19.04
2019-05-09T13:43:47.365Z,18.89
2019-05-09T13:46:12.772Z,18.41
2019-05-09T13:49:04.581Z,18.89
2019-05-09T13:51:18.425Z,19.68
2019-05-09T13:53:51.601Z,19.61
2019-05-09T13:56:22.914Z,19.41
2019-05-09T13:58:54.427Z,20.55
2019-05-09T14:01:25.704Z,18.52
2019-05-09T14:03:58.562Z,20.04
2019-05-09T14:06:30.104Z,20.14
2019-05-09T14:09:01.797Z,19.77
2019-05-09T14:11:34.940Z,18.92
2019-05-09T14:14:06.368Z,18.32
2019-05-09T14:16:38.873Z,19.19
2019-05-09T14:19:29.896Z,18.95
2019-05-09T14:21:44.182Z,19.45
2019-05-09T14:24:19.025Z,19.55
2019-05-09T14:26:49.327Z,19.08
2019-05-09T14:29:21.864Z,18.72
2019-05-09T14:31:53.644Z,18.32
2019-05-09T14:34:25.314Z,18.29
2019-05-09T14:36:58.594Z,18.49
2019-05-09T14:39:31.480Z,18.85
2019-05-09T14:42:03.156Z,18.76
2019-05-09T14:44:34.954Z,18.80
2019-05-09T14:47:08.103Z,18.73
2019-05-09T14:49:44.253Z,18.51
2019-05-09T14:52:13.907Z,18.98
2019-05-09T14:54:48.240Z,18.90
2019-05-09T14:57:19.057Z,19.06
2019-05-09T14:59:50.611Z,19.37
2019-05-09T15:02:22.013Z,19.37
2019-05-09T15:04:54.135Z,19.29
2019-05-09T15:07:28.391Z,19.22
2019-05-09T15:10:00.015Z,19.04
2019-05-09T15:12:32.318Z,18.61
2019-05-09T15:15:03.407Z,18.53
2019-05-09T15:17:35.333Z,18.52
2019-05-09T15:20:08.914Z,18.18
2019-05-09T15:22:40.379Z,18.55
2019-05-09T15:25:12.410Z,18.45
2019-05-09T15:27:44.622Z,18.48
2019-05-09T15:30:18.497Z,17.93
2019-05-09T15:32:51.973Z,18.27
2019-05-09T15:35:23.972Z,18.16
2019-05-09T15:37:55.834Z,18.13
2019-05-09T15:40:28.258Z,18.13
2019-05-09T15:43:00.173Z,18.16
2019-05-09T15:45:35.720Z,17.96
2019-05-09T15:48:07.758Z,17.73
2019-05-09T15:50:39.665Z,17.72
2019-05-09T15:53:11.695Z,17.96
2019-05-09T15:55:43.494Z,18.02
2019-05-09T15:58:15.077Z,17.65
2019-05-09T16:00:49.811Z,17.68
2019-05-09T16:03:21.985Z,17.46
2019-05-09T16:05:53.633Z,17.39
2019-05-09T16:08:25.490Z,17.40
2019-05-09T16:10:58.124Z,17.56
2019-05-09T16:13:30.037Z,17.64
2019-05-09T16:16:01.925Z,17.51
2019-05-09T16:18:33.493Z,17.42
2019-05-09T16:21:05.128Z,17.34
2019-05-09T16:23:38.102Z,17.60
2019-05-09T16:26:09.668Z,17.69
2019-05-09T16:28:41.538Z,17.31
2019-05-09T16:31:13.414Z,17.17
2019-05-09T16:33:47.612Z,17.26
2019-05-09T16:36:18.836Z,17.21
2019-05-09T16:38:51.074Z,17.30
2019-05-09T16:41:23.380Z,17.23
2019-05-09T16:43:54.668Z,17.34
2019-05-09T16:46:28.663Z,17.21
2019-05-09T16:49:00.722Z,17.15
2019-05-09T16:51:33.964Z,17.20
2019-05-09T16:54:07.439Z,17.00
2019-05-09T16:56:38.679Z,16.90
2019-05-09T16:59:10.598Z,17.05
2019-05-09T17:01:47.651Z,17.09
2019-05-09T17:04:19.161Z,17.01
2019-05-09T17:06:51.096Z,16.93
2019-05-09T17:09:23.519Z,17.00
2019-05-09T17:11:57.739Z,16.78
2019-05-09T17:14:28.635Z,16.82
2019-05-09T17:17:01.086Z,16.79
2019-05-09T17:19:33.167Z,17.00
2019-05-09T17:22:30.096Z,16.95
2019-05-09T17:25:02.500Z,16.82
2019-05-09T17:27:33.874Z,16.79
2019-05-09T17:30:08.497Z,16.85
2019-05-09T17:32:39.765Z,16.72
2019-05-09T17:35:11.365Z,16.55
2019-05-09T17:37:43.217Z,16.51
2019-05-09T17:40:19.053Z,16.23
2019-05-09T17:42:49.122Z,16.54
2019-05-09T17:45:20.786Z,16.43
2019-05-09T17:47:52.380Z,16.31
2019-05-09T17:50:23.687Z,16.43
2019-05-09T17:52:57.793Z,16.38
2019-05-09T17:55:29.398Z,16.25
2019-05-09T17:58:01.114Z,16.33
2019-05-09T18:00:33.333Z,16.39
2019-05-09T18:03:05.276Z,16.20
2019-05-09T18:05:39.005Z,16.23
2019-05-09T18:08:11.666Z,16.25
2019-05-09T18:10:43.554Z,16.32
2019-05-09T18:13:15.091Z,15.91
2019-05-09T18:15:48.329Z,16.02
2019-05-09T18:18:19.918Z,16.04
2019-05-09T18:20:51.852Z,16.14
2019-05-09T18:23:24.165Z,16.10
2019-05-09T18:25:58.616Z,16.02
2019-05-09T18:28:31.475Z,15.87
2019-05-09T18:31:03.346Z,16.01
2019-05-09T18:33:42.030Z,16.11
2019-05-09T18:36:13.549Z,16.04
2019-05-09T18:38:44.797Z,15.98
2019-05-09T18:41:17.850Z,15.82
2019-05-09T18:43:49.902Z,15.92
2019-05-09T18:46:21.785Z,15.93
2019-05-09T18:48:53.011Z,15.88
2019-05-09T18:51:28.350Z,15.87
2019-05-09T18:53:58.498Z,15.84
2019-05-09T18:56:30.244Z,15.77
2019-05-09T18:59:19.428Z,15.62
2019-05-09T19:01:51.985Z,15.72
2019-05-09T19:04:24.179Z,15.73
2019-05-09T19:06:56.114Z,15.73
2019-05-09T19:09:27.125Z,15.68
2019-05-09T19:11:59.309Z,15.58
2019-05-09T19:14:31.916Z,15.55
2019-05-09T19:17:38.648Z,15.54
2019-05-09T19:20:26.699Z,15.55
2019-05-09T19:22:58.582Z,15.59
2019-05-09T19:25:30.769Z,15.51
2019-05-09T19:28:03.692Z,15.51
2019-05-09T19:30:35.409Z,15.46
2019-05-09T19:33:06.552Z,15.46
2019-05-09T19:35:38.527Z,15.64
2019-05-09T19:38:10.149Z,15.26
2019-05-09T19:40:41.788Z,15.31
2019-05-09T19:43:13.111Z,15.52
2019-05-09T19:45:45.069Z,15.39
2019-05-09T19:48:16.957Z,15.35
2019-05-09T19:50:48.618Z,15.26
2019-05-09T19:53:20.573Z,15.61
2019-05-09T19:55:52.376Z,15.47
2019-05-09T19:58:24.078Z,15.69
2019-05-09T20:00:56.290Z,15.62
2019-05-09T20:03:29.006Z,15.39
2019-05-09T20:06:00.340Z,15.34
2019-05-09T20:08:34.248Z,15.42
2019-05-09T20:11:23.200Z,15.21
2019-05-09T20:14:13.505Z,15.16
2019-05-09T20:16:47.852Z,15.08
2019-05-09T20:19:19.881Z,15.14
2019-05-09T20:21:51.295Z,15.07
2019-05-09T20:24:23.174Z,14.98
2019-05-09T20:26:55.867Z,15.04
2019-05-09T20:29:30.303Z,14.97
2019-05-09T20:32:02.661Z,15.22
2019-05-09T20:34:34.522Z,15.27
2019-05-09T20:37:05.815Z,15.10
2019-05-09T20:39:37.843Z,15.20
2019-05-09T20:42:10.004Z,15.03
2019-05-09T20:44:41.742Z,14.94
2019-05-09T20:47:13.558Z,14.90
2019-05-09T20:49:45.501Z,14.97
2019-05-09T20:52:21.381Z,14.84
2019-05-09T20:54:51.808Z,14.78
2019-05-09T20:57:24.814Z,15.06
2019-05-09T20:59:56.950Z,14.96
2019-05-09T21:02:29.445Z,15.03
2019-05-09T21:05:01.434Z,15.14
2019-05-09T21:07:33.314Z,14.91
2019-05-09T21:10:05.305Z,14.97
2019-05-09T21:12:38.689Z,14.93
2019-05-09T21:15:10.390Z,14.72
2019-05-09T21:17:42.606Z,14.93
2019-05-09T21:20:14.862Z,14.91
2019-05-09T21:22:46.944Z,14.82
2019-05-09T21:25:18.887Z,14.78
2019-05-09T21:27:51.158Z,14.89
2019-05-09T21:30:23.037Z,14.78
2019-05-09T21:32:54.593Z,14.69
2019-05-09T21:35:25.872Z,14.48
2019-05-09T21:37:57.537Z,14.65
2019-05-09T21:40:30.063Z,14.58
2019-05-09T21:43:01.945Z,14.67
2019-05-09T21:45:33.786Z,14.61
2019-05-09T21:48:05.550Z,14.40
2019-05-09T21:50:37.508Z,14.31
2019-05-09T21:53:08.962Z,14.68
2019-05-09T21:55:41.738Z,14.64
2019-05-09T21:58:13.654Z,14.68
2019-05-09T22:00:47.156Z,14.44
2019-05-09T22:03:20.608Z,14.53
2019-05-09T22:05:52.141Z,14.46
2019-05-09T22:08:23.790Z,14.29
2019-05-09T22:10:55.943Z,14.28
2019-05-09T22:13:27.615Z,14.13
2019-05-09T22:15:59.292Z,14.05
2019-05-09T22:18:31.091Z,14.52
2019-05-09T22:21:02.890Z,14.27
2019-05-09T22:23:34.768Z,14.05
2019-05-09T22:26:06.604Z,14.08
2019-05-09T22:28:38.872Z,14.08
2019-05-09T22:31:10.440Z,14.20
2019-05-09T22:33:42.578Z,14.23
2019-05-09T22:36:14.401Z,13.96
2019-05-09T22:38:46.326Z,14.02
2019-05-09T22:41:17.867Z,14.05
2019-05-09T22:43:49.508Z,14.21
2019-05-09T22:46:22.507Z,14.07
2019-05-09T22:48:54.669Z,14.17
2019-05-09T22:51:26.556Z,13.99
2019-05-09T22:54:11.467Z,13.87
2019-05-09T22:56:32.172Z,13.87
2019-05-09T22:59:04.007Z,13.70
2019-05-09T23:01:36.123Z,13.75
2019-05-09T23:04:07.471Z,13.79
2019-05-09T23:06:39.324Z,13.80
2019-05-09T23:09:11.187Z,13.80
2019-05-09T23:11:42.843Z,13.78
2019-05-09T23:14:14.393Z,13.77
2019-05-09T23:16:50.074Z,13.84
2019-05-09T23:19:20.921Z,13.69
2019-05-09T23:21:52.944Z,13.73
2019-05-09T23:24:28.474Z,13.73
2019-05-09T23:26:58.878Z,13.65
2019-05-09T23:29:32.143Z,13.48
2019-05-09T23:32:13.085Z,13.43
2019-05-09T23:34:44.734Z,13.26
2019-05-09T23:37:16.906Z,13.34
2019-05-09T23:39:49.014Z,13.44
2019-05-09T23:42:20.555Z,13.42
2019-05-09T23:44:52.496Z,13.34
2019-05-09T23:47:24.520Z,13.32
2019-05-09T23:49:56.466Z,13.32
2019-05-09T23:52:27.963Z,13.26
2019-05-09T23:55:17.456Z,13.18
2019-05-09T23:58:06.870Z,13.14
